sensor_id;sensor_type;location;lat;lon;timestamp;P1;durP1;ratioP1;P2;durP2;ratioP2
22250;SDS011;59348;52.158;5.588;2022-10-30T00:00:51;23.00;;;10.80;;
22250;SDS011;59348;52.158;5.588;2022-10-30T00:03:19;20.17;;;10.15;;
22250;SDS011;59348;52.158;5.588;2022-10-30T00:05:46;20.27;;;10.10;;
22250;SDS011;59348;52.158;5.588;2022-10-30T00:08:15;18.38;;;9.88;;
22250;SDS011;59348;52.158;5.588;2022-10-30T00:10:42;20.13;;;9.82;;
22250;SDS011;59348;52.158;5.588;2022-10-30T00:13:10;25.90;;;9.90;;
22250;SDS011;59348;52.158;5.588;2022-10-30T00:15:38;18.70;;;10.18;;
22250;SDS011;59348;52.158;5.588;2022-10-30T00:18:06;19.08;;;9.10;;
22250;SDS011;59348;52.158;5.588;2022-10-30T00:20:34;20.90;;;9.65;;
22250;SDS011;59348;52.158;5.588;2022-10-30T00:23:02;16.08;;;9.52;;
22250;SDS011;59348;52.158;5.588;2022-10-30T00:25:29;18.65;;;9.73;;
22250;SDS011;59348;52.158;5.588;2022-10-30T00:27:56;24.25;;;9.98;;
22250;SDS011;59348;52.158;5.588;2022-10-30T00:30:23;19.90;;;9.85;;
22250;SDS011;59348;52.158;5.588;2022-10-30T00:32:51;18.45;;;9.50;;
22250;SDS011;59348;52.158;5.588;2022-10-30T00:35:19;21.33;;;9.88;;
22250;SDS011;59348;52.158;5.588;2022-10-30T00:37:47;22.85;;;10.15;;
22250;SDS011;59348;52.158;5.588;2022-10-30T00:40:15;17.48;;;9.50;;
22250;SDS011;59348;52.158;5.588;2022-10-30T00:42:42;16.95;;;9.07;;
22250;SDS011;59348;52.158;5.588;2022-10-30T00:45:10;19.67;;;9.57;;
22250;SDS011;59348;52.158;5.588;2022-10-30T00:47:38;17.88;;;9.50;;
22250;SDS011;59348;52.158;5.588;2022-10-30T00:50:08;26.55;;;9.88;;
22250;SDS011;59348;52.158;5.588;2022-10-30T00:52:38;18.83;;;9.75;;
22250;SDS011;59348;52.158;5.588;2022-10-30T00:55:07;26.77;;;9.77;;
22250;SDS011;59348;52.158;5.588;2022-10-30T00:57:36;17.27;;;9.73;;
22250;SDS011;59348;52.158;5.588;2022-10-30T01:00:05;28.27;;;10.40;;
22250;SDS011;59348;52.158;5.588;2022-10-30T01:02:34;21.30;;;9.88;;
22250;SDS011;59348;52.158;5.588;2022-10-30T01:05:01;21.02;;;9.95;;
22250;SDS011;59348;52.158;5.588;2022-10-30T01:07:28;22.90;;;10.57;;
22250;SDS011;59348;52.158;5.588;2022-10-30T01:09:57;24.52;;;10.00;;
22250;SDS011;59348;52.158;5.588;2022-10-30T01:12:24;24.20;;;10.73;;
22250;SDS011;59348;52.158;5.588;2022-10-30T01:14:53;20.80;;;10.13;;
22250;SDS011;59348;52.158;5.588;2022-10-30T01:20:06;16.83;;;9.75;;
22250;SDS011;59348;52.158;5.588;2022-10-30T01:22:38;18.38;;;10.07;;
22250;SDS011;59348;52.158;5.588;2022-10-30T01:25:17;25.80;;;10.80;;
22250;SDS011;59348;52.158;5.588;2022-10-30T01:27:48;24.55;;;10.60;;
22250;SDS011;59348;52.158;5.588;2022-10-30T01:30:19;26.58;;;10.85;;
22250;SDS011;59348;52.158;5.588;2022-10-30T01:32:51;24.70;;;10.65;;
22250;SDS011;59348;52.158;5.588;2022-10-30T01:35:20;21.92;;;10.68;;
22250;SDS011;59348;52.158;5.588;2022-10-30T01:37:51;24.80;;;10.75;;
22250;SDS011;59348;52.158;5.588;2022-10-30T01:40:22;23.50;;;10.60;;
22250;SDS011;59348;52.158;5.588;2022-10-30T01:42:50;20.52;;;10.80;;
22250;SDS011;59348;52.158;5.588;2022-10-30T01:45:19;21.38;;;10.40;;
22250;SDS011;59348;52.158;5.588;2022-10-30T01:47:52;23.40;;;10.88;;
22250;SDS011;59348;52.158;5.588;2022-10-30T01:50:25;22.80;;;10.30;;
22250;SDS011;59348;52.158;5.588;2022-10-30T01:52:56;25.02;;;10.40;;
22250;SDS011;59348;52.158;5.588;2022-10-30T01:55:30;19.40;;;10.77;;
22250;SDS011;59348;52.158;5.588;2022-10-30T01:58:01;21.05;;;10.68;;
22250;SDS011;59348;52.158;5.588;2022-10-30T02:00:30;20.98;;;11.07;;
22250;SDS011;59348;52.158;5.588;2022-10-30T02:02:58;21.15;;;10.48;;
22250;SDS011;59348;52.158;5.588;2022-10-30T02:05:26;19.92;;;10.93;;
22250;SDS011;59348;52.158;5.588;2022-10-30T02:07:56;23.20;;;10.90;;
22250;SDS011;59348;52.158;5.588;2022-10-30T02:10:23;26.95;;;12.10;;
22250;SDS011;59348;52.158;5.588;2022-10-30T02:12:52;21.15;;;11.20;;
22250;SDS011;59348;52.158;5.588;2022-10-30T02:15:19;18.77;;;11.27;;
22250;SDS011;59348;52.158;5.588;2022-10-30T02:17:47;22.10;;;10.90;;
22250;SDS011;59348;52.158;5.588;2022-10-30T02:20:16;21.35;;;10.63;;
22250;SDS011;59348;52.158;5.588;2022-10-30T02:22:43;21.70;;;10.80;;
22250;SDS011;59348;52.158;5.588;2022-10-30T02:25:11;20.35;;;10.57;;
22250;SDS011;59348;52.158;5.588;2022-10-30T02:27:38;24.17;;;10.63;;
22250;SDS011;59348;52.158;5.588;2022-10-30T02:30:06;21.42;;;11.13;;
22250;SDS011;59348;52.158;5.588;2022-10-30T02:32:33;22.17;;;10.98;;
22250;SDS011;59348;52.158;5.588;2022-10-30T02:35:01;19.60;;;10.38;;
22250;SDS011;59348;52.158;5.588;2022-10-30T02:37:30;20.95;;;10.70;;
22250;SDS011;59348;52.158;5.588;2022-10-30T02:39:59;21.40;;;10.55;;
22250;SDS011;59348;52.158;5.588;2022-10-30T02:42:27;21.60;;;10.90;;
22250;SDS011;59348;52.158;5.588;2022-10-30T02:44:54;20.42;;;11.02;;
22250;SDS011;59348;52.158;5.588;2022-10-30T02:47:21;20.48;;;10.27;;
22250;SDS011;59348;52.158;5.588;2022-10-30T02:49:48;16.20;;;9.73;;
22250;SDS011;59348;52.158;5.588;2022-10-30T02:52:16;17.25;;;10.20;;
22250;SDS011;59348;52.158;5.588;2022-10-30T02:54:44;22.05;;;10.35;;
22250;SDS011;59348;52.158;5.588;2022-10-30T02:57:12;21.98;;;11.30;;
22250;SDS011;59348;52.158;5.588;2022-10-30T02:59:39;22.15;;;11.00;;
22250;SDS011;59348;52.158;5.588;2022-10-30T03:02:06;17.15;;;11.30;;
22250;SDS011;59348;52.158;5.588;2022-10-30T03:04:34;25.08;;;11.10;;
22250;SDS011;59348;52.158;5.588;2022-10-30T03:07:01;21.27;;;9.80;;
22250;SDS011;59348;52.158;5.588;2022-10-30T03:09:28;25.35;;;11.65;;
22250;SDS011;59348;52.158;5.588;2022-10-30T03:11:57;23.40;;;11.52;;
22250;SDS011;59348;52.158;5.588;2022-10-30T03:14:24;23.80;;;11.25;;
22250;SDS011;59348;52.158;5.588;2022-10-30T03:16:51;25.52;;;11.63;;
22250;SDS011;59348;52.158;5.588;2022-10-30T03:19:19;21.73;;;11.57;;
22250;SDS011;59348;52.158;5.588;2022-10-30T03:21:46;23.65;;;12.18;;
22250;SDS011;59348;52.158;5.588;2022-10-30T03:24:14;21.13;;;12.20;;
22250;SDS011;59348;52.158;5.588;2022-10-30T03:26:41;23.67;;;11.50;;
22250;SDS011;59348;52.158;5.588;2022-10-30T03:29:10;24.20;;;12.00;;
22250;SDS011;59348;52.158;5.588;2022-10-30T03:31:37;25.98;;;11.18;;
22250;SDS011;59348;52.158;5.588;2022-10-30T03:34:04;23.30;;;11.63;;
22250;SDS011;59348;52.158;5.588;2022-10-30T03:36:32;21.90;;;11.45;;
22250;SDS011;59348;52.158;5.588;2022-10-30T03:38:59;21.83;;;11.23;;
22250;SDS011;59348;52.158;5.588;2022-10-30T03:41:26;17.23;;;10.52;;
22250;SDS011;59348;52.158;5.588;2022-10-30T03:43:53;27.98;;;11.07;;
22250;SDS011;59348;52.158;5.588;2022-10-30T03:46:22;24.40;;;11.15;;
22250;SDS011;59348;52.158;5.588;2022-10-30T03:48:49;20.80;;;10.30;;
22250;SDS011;59348;52.158;5.588;2022-10-30T03:51:17;18.00;;;10.40;;
22250;SDS011;59348;52.158;5.588;2022-10-30T03:53:44;22.40;;;11.27;;
22250;SDS011;59348;52.158;5.588;2022-10-30T03:56:11;24.05;;;11.82;;
22250;SDS011;59348;52.158;5.588;2022-10-30T03:58:38;16.20;;;10.13;;
22250;SDS011;59348;52.158;5.588;2022-10-30T04:01:06;17.38;;;10.20;;
22250;SDS011;59348;52.158;5.588;2022-10-30T04:03:35;17.95;;;10.27;;
22250;SDS011;59348;52.158;5.588;2022-10-30T04:06:02;18.42;;;10.48;;
22250;SDS011;59348;52.158;5.588;2022-10-30T04:08:31;28.13;;;12.05;;
22250;SDS011;59348;52.158;5.588;2022-10-30T04:10:58;24.70;;;11.13;;
22250;SDS011;59348;52.158;5.588;2022-10-30T04:13:25;22.77;;;11.35;;
22250;SDS011;59348;52.158;5.588;2022-10-30T04:15:52;14.38;;;9.77;;
22250;SDS011;59348;52.158;5.588;2022-10-30T04:18:20;23.42;;;11.02;;
22250;SDS011;59348;52.158;5.588;2022-10-30T04:20:49;30.48;;;11.73;;
22250;SDS011;59348;52.158;5.588;2022-10-30T04:23:16;19.55;;;10.70;;
22250;SDS011;59348;52.158;5.588;2022-10-30T04:25:44;18.05;;;11.13;;
22250;SDS011;59348;52.158;5.588;2022-10-30T04:28:11;25.98;;;11.13;;
22250;SDS011;59348;52.158;5.588;2022-10-30T04:30:39;18.05;;;9.50;;
22250;SDS011;59348;52.158;5.588;2022-10-30T04:33:07;18.25;;;10.18;;
22250;SDS011;59348;52.158;5.588;2022-10-30T04:35:36;18.25;;;9.82;;
22250;SDS011;59348;52.158;5.588;2022-10-30T04:38:05;19.27;;;11.00;;
22250;SDS011;59348;52.158;5.588;2022-10-30T04:40:33;21.27;;;11.00;;
22250;SDS011;59348;52.158;5.588;2022-10-30T04:43:01;17.27;;;10.13;;
22250;SDS011;59348;52.158;5.588;2022-10-30T04:45:29;18.60;;;10.00;;
22250;SDS011;59348;52.158;5.588;2022-10-30T04:48:00;18.77;;;10.15;;
22250;SDS011;59348;52.158;5.588;2022-10-30T04:50:27;16.33;;;10.20;;
22250;SDS011;59348;52.158;5.588;2022-10-30T04:52:57;17.95;;;10.30;;
22250;SDS011;59348;52.158;5.588;2022-10-30T04:55:26;20.95;;;9.95;;
22250;SDS011;59348;52.158;5.588;2022-10-30T04:57:54;15.23;;;9.60;;
22250;SDS011;59348;52.158;5.588;2022-10-30T05:00:22;20.77;;;11.60;;
22250;SDS011;59348;52.158;5.588;2022-10-30T05:02:50;20.88;;;11.25;;
22250;SDS011;59348;52.158;5.588;2022-10-30T05:05:17;15.98;;;10.20;;
22250;SDS011;59348;52.158;5.588;2022-10-30T05:07:44;16.98;;;10.10;;
22250;SDS011;59348;52.158;5.588;2022-10-30T05:10:12;21.38;;;10.80;;
22250;SDS011;59348;52.158;5.588;2022-10-30T05:12:41;18.52;;;9.90;;
22250;SDS011;59348;52.158;5.588;2022-10-30T05:15:09;19.15;;;9.88;;
22250;SDS011;59348;52.158;5.588;2022-10-30T05:17:36;14.30;;;9.35;;
22250;SDS011;59348;52.158;5.588;2022-10-30T05:20:04;17.42;;;9.65;;
22250;SDS011;59348;52.158;5.588;2022-10-30T05:22:31;19.02;;;10.00;;
22250;SDS011;59348;52.158;5.588;2022-10-30T05:24:59;18.52;;;9.80;;
22250;SDS011;59348;52.158;5.588;2022-10-30T05:27:26;16.65;;;10.23;;
22250;SDS011;59348;52.158;5.588;2022-10-30T05:29:55;14.65;;;9.95;;
22250;SDS011;59348;52.158;5.588;2022-10-30T05:32:22;21.08;;;11.27;;
22250;SDS011;59348;52.158;5.588;2022-10-30T05:34:49;17.95;;;10.40;;
22250;SDS011;59348;52.158;5.588;2022-10-30T05:37:16;17.25;;;9.82;;
22250;SDS011;59348;52.158;5.588;2022-10-30T05:39:44;16.85;;;9.30;;
22250;SDS011;59348;52.158;5.588;2022-10-30T05:42:11;14.77;;;9.27;;
22250;SDS011;59348;52.158;5.588;2022-10-30T05:44:39;15.00;;;9.00;;
22250;SDS011;59348;52.158;5.588;2022-10-30T05:47:07;15.63;;;8.75;;
22250;SDS011;59348;52.158;5.588;2022-10-30T05:49:35;17.73;;;8.75;;
22250;SDS011;59348;52.158;5.588;2022-10-30T05:52:02;17.25;;;9.25;;
22250;SDS011;59348;52.158;5.588;2022-10-30T05:54:29;16.13;;;9.10;;
22250;SDS011;59348;52.158;5.588;2022-10-30T05:56:56;17.60;;;9.02;;
22250;SDS011;59348;52.158;5.588;2022-10-30T05:59:24;18.60;;;9.55;;
22250;SDS011;59348;52.158;5.588;2022-10-30T06:01:51;13.95;;;9.73;;
22250;SDS011;59348;52.158;5.588;2022-10-30T06:04:21;15.45;;;9.63;;
22250;SDS011;59348;52.158;5.588;2022-10-30T06:06:48;15.35;;;9.70;;
22250;SDS011;59348;52.158;5.588;2022-10-30T06:09:15;15.05;;;9.60;;
22250;SDS011;59348;52.158;5.588;2022-10-30T06:11:43;16.80;;;9.63;;
22250;SDS011;59348;52.158;5.588;2022-10-30T06:14:10;14.85;;;9.23;;
22250;SDS011;59348;52.158;5.588;2022-10-30T06:16:37;16.88;;;9.60;;
22250;SDS011;59348;52.158;5.588;2022-10-30T06:19:05;13.43;;;10.30;;
22250;SDS011;59348;52.158;5.588;2022-10-30T06:21:33;17.73;;;9.73;;
22250;SDS011;59348;52.158;5.588;2022-10-30T06:24:01;25.52;;;10.93;;
22250;SDS011;59348;52.158;5.588;2022-10-30T06:26:28;22.90;;;11.98;;
22250;SDS011;59348;52.158;5.588;2022-10-30T06:28:55;23.23;;;11.82;;
22250;SDS011;59348;52.158;5.588;2022-10-30T06:31:23;20.40;;;11.48;;
22250;SDS011;59348;52.158;5.588;2022-10-30T06:33:50;23.08;;;12.18;;
22250;SDS011;59348;52.158;5.588;2022-10-30T06:36:17;22.30;;;12.10;;
22250;SDS011;59348;52.158;5.588;2022-10-30T06:38:46;20.20;;;10.75;;
22250;SDS011;59348;52.158;5.588;2022-10-30T06:41:13;22.98;;;11.00;;
22250;SDS011;59348;52.158;5.588;2022-10-30T06:43:40;15.75;;;10.95;;
22250;SDS011;59348;52.158;5.588;2022-10-30T06:46:07;19.90;;;11.15;;
22250;SDS011;59348;52.158;5.588;2022-10-30T06:48:35;12.95;;;9.35;;
22250;SDS011;59348;52.158;5.588;2022-10-30T06:51:02;19.17;;;11.35;;
22250;SDS011;59348;52.158;5.588;2022-10-30T06:53:29;18.25;;;10.00;;
22250;SDS011;59348;52.158;5.588;2022-10-30T06:55:59;27.25;;;13.32;;
22250;SDS011;59348;52.158;5.588;2022-10-30T06:58:27;23.92;;;13.93;;
22250;SDS011;59348;52.158;5.588;2022-10-30T07:00:54;21.20;;;11.68;;
22250;SDS011;59348;52.158;5.588;2022-10-30T07:03:22;21.20;;;10.63;;
22250;SDS011;59348;52.158;5.588;2022-10-30T07:05:50;15.85;;;11.15;;
22250;SDS011;59348;52.158;5.588;2022-10-30T07:08:17;16.75;;;9.52;;
22250;SDS011;59348;52.158;5.588;2022-10-30T07:10:45;22.45;;;10.32;;
22250;SDS011;59348;52.158;5.588;2022-10-30T07:13:13;19.67;;;11.43;;
22250;SDS011;59348;52.158;5.588;2022-10-30T07:15:40;15.00;;;9.40;;
22250;SDS011;59348;52.158;5.588;2022-10-30T07:18:08;22.70;;;11.93;;
22250;SDS011;59348;52.158;5.588;2022-10-30T07:20:35;21.85;;;11.93;;
22250;SDS011;59348;52.158;5.588;2022-10-30T07:23:03;24.30;;;12.82;;
22250;SDS011;59348;52.158;5.588;2022-10-30T07:25:30;19.88;;;11.98;;
22250;SDS011;59348;52.158;5.588;2022-10-30T07:27:58;20.33;;;12.07;;
22250;SDS011;59348;52.158;5.588;2022-10-30T07:30:27;18.80;;;11.30;;
22250;SDS011;59348;52.158;5.588;2022-10-30T07:32:55;20.65;;;11.38;;
22250;SDS011;59348;52.158;5.588;2022-10-30T07:35:23;18.92;;;10.77;;
22250;SDS011;59348;52.158;5.588;2022-10-30T07:37:50;23.33;;;11.73;;
22250;SDS011;59348;52.158;5.588;2022-10-30T07:40:17;19.00;;;11.57;;
22250;SDS011;59348;52.158;5.588;2022-10-30T07:42:45;18.73;;;10.93;;
22250;SDS011;59348;52.158;5.588;2022-10-30T07:45:13;17.58;;;10.65;;
22250;SDS011;59348;52.158;5.588;2022-10-30T07:47:41;23.48;;;12.38;;
22250;SDS011;59348;52.158;5.588;2022-10-30T07:50:09;20.27;;;12.35;;
22250;SDS011;59348;52.158;5.588;2022-10-30T07:52:36;24.00;;;12.70;;
22250;SDS011;59348;52.158;5.588;2022-10-30T07:55:04;21.88;;;12.48;;
22250;SDS011;59348;52.158;5.588;2022-10-30T07:57:34;21.42;;;12.90;;
22250;SDS011;59348;52.158;5.588;2022-10-30T08:00:02;26.25;;;13.45;;
22250;SDS011;59348;52.158;5.588;2022-10-30T08:02:30;19.17;;;13.02;;
22250;SDS011;59348;52.158;5.588;2022-10-30T08:04:58;28.40;;;14.52;;
22250;SDS011;59348;52.158;5.588;2022-10-30T08:07:28;23.52;;;13.73;;
22250;SDS011;59348;52.158;5.588;2022-10-30T08:09:56;26.80;;;15.38;;
22250;SDS011;59348;52.158;5.588;2022-10-30T08:12:23;26.02;;;14.35;;
22250;SDS011;59348;52.158;5.588;2022-10-30T08:14:51;24.20;;;14.20;;
22250;SDS011;59348;52.158;5.588;2022-10-30T08:17:18;25.90;;;14.18;;
22250;SDS011;59348;52.158;5.588;2022-10-30T08:19:46;23.15;;;13.50;;
22250;SDS011;59348;52.158;5.588;2022-10-30T08:22:14;23.50;;;13.98;;
22250;SDS011;59348;52.158;5.588;2022-10-30T08:24:42;29.10;;;14.48;;
22250;SDS011;59348;52.158;5.588;2022-10-30T08:27:09;23.70;;;13.98;;
22250;SDS011;59348;52.158;5.588;2022-10-30T08:29:36;22.35;;;13.75;;
22250;SDS011;59348;52.158;5.588;2022-10-30T08:32:04;26.52;;;14.55;;
22250;SDS011;59348;52.158;5.588;2022-10-30T08:34:31;24.50;;;14.10;;
22250;SDS011;59348;52.158;5.588;2022-10-30T08:36:59;25.80;;;14.10;;
22250;SDS011;59348;52.158;5.588;2022-10-30T08:39:28;24.77;;;14.15;;
22250;SDS011;59348;52.158;5.588;2022-10-30T08:41:56;26.20;;;14.02;;
22250;SDS011;59348;52.158;5.588;2022-10-30T08:44:24;22.27;;;13.55;;
22250;SDS011;59348;52.158;5.588;2022-10-30T08:46:51;31.08;;;14.23;;
22250;SDS011;59348;52.158;5.588;2022-10-30T08:49:19;21.38;;;13.68;;
22250;SDS011;59348;52.158;5.588;2022-10-30T08:51:46;24.02;;;14.05;;
22250;SDS011;59348;52.158;5.588;2022-10-30T08:54:13;30.00;;;14.13;;
22250;SDS011;59348;52.158;5.588;2022-10-30T08:56:42;25.08;;;14.30;;
22250;SDS011;59348;52.158;5.588;2022-10-30T08:59:09;26.02;;;14.52;;
22250;SDS011;59348;52.158;5.588;2022-10-30T09:01:36;28.55;;;14.48;;
22250;SDS011;59348;52.158;5.588;2022-10-30T09:04:04;22.98;;;13.98;;
22250;SDS011;59348;52.158;5.588;2022-10-30T09:06:31;26.48;;;14.13;;
22250;SDS011;59348;52.158;5.588;2022-10-30T09:08:58;26.80;;;13.93;;
22250;SDS011;59348;52.158;5.588;2022-10-30T09:11:26;29.15;;;13.98;;
22250;SDS011;59348;52.158;5.588;2022-10-30T09:13:54;27.60;;;14.18;;
22250;SDS011;59348;52.158;5.588;2022-10-30T09:16:22;23.52;;;13.35;;
22250;SDS011;59348;52.158;5.588;2022-10-30T09:18:49;22.85;;;13.35;;
22250;SDS011;59348;52.158;5.588;2022-10-30T09:21:16;26.10;;;13.05;;
22250;SDS011;59348;52.158;5.588;2022-10-30T09:23:43;24.23;;;13.88;;
22250;SDS011;59348;52.158;5.588;2022-10-30T09:26:11;27.00;;;13.10;;
22250;SDS011;59348;52.158;5.588;2022-10-30T09:28:38;29.35;;;13.70;;
22250;SDS011;59348;52.158;5.588;2022-10-30T09:31:07;27.83;;;14.60;;
22250;SDS011;59348;52.158;5.588;2022-10-30T09:33:34;25.33;;;13.73;;
22250;SDS011;59348;52.158;5.588;2022-10-30T09:36:01;23.17;;;13.88;;
22250;SDS011;59348;52.158;5.588;2022-10-30T09:38:29;21.50;;;13.27;;
22250;SDS011;59348;52.158;5.588;2022-10-30T09:41:00;25.83;;;13.93;;
22250;SDS011;59348;52.158;5.588;2022-10-30T09:43:32;27.98;;;13.88;;
22250;SDS011;59348;52.158;5.588;2022-10-30T09:46:05;26.52;;;14.30;;
22250;SDS011;59348;52.158;5.588;2022-10-30T09:48:40;26.90;;;14.20;;
22250;SDS011;59348;52.158;5.588;2022-10-30T09:51:15;30.38;;;13.80;;
22250;SDS011;59348;52.158;5.588;2022-10-30T09:53:48;23.13;;;13.63;;
22250;SDS011;59348;52.158;5.588;2022-10-30T09:56:18;23.85;;;14.07;;
22250;SDS011;59348;52.158;5.588;2022-10-30T09:58:52;27.88;;;14.50;;
22250;SDS011;59348;52.158;5.588;2022-10-30T10:01:26;28.30;;;14.30;;
22250;SDS011;59348;52.158;5.588;2022-10-30T10:03:56;26.67;;;13.93;;
22250;SDS011;59348;52.158;5.588;2022-10-30T10:06:27;25.13;;;14.05;;
22250;SDS011;59348;52.158;5.588;2022-10-30T10:08:55;30.05;;;14.05;;
22250;SDS011;59348;52.158;5.588;2022-10-30T10:11:25;28.23;;;13.48;;
22250;SDS011;59348;52.158;5.588;2022-10-30T10:13:55;27.88;;;15.00;;
22250;SDS011;59348;52.158;5.588;2022-10-30T10:16:25;24.23;;;14.07;;
22250;SDS011;59348;52.158;5.588;2022-10-30T10:18:56;30.77;;;14.80;;
22250;SDS011;59348;52.158;5.588;2022-10-30T10:21:26;27.30;;;14.43;;
22250;SDS011;59348;52.158;5.588;2022-10-30T10:23:54;26.15;;;14.50;;
22250;SDS011;59348;52.158;5.588;2022-10-30T10:26:29;28.75;;;15.30;;
22250;SDS011;59348;52.158;5.588;2022-10-30T10:29:01;27.35;;;15.48;;
22250;SDS011;59348;52.158;5.588;2022-10-30T10:31:36;27.98;;;14.57;;
22250;SDS011;59348;52.158;5.588;2022-10-30T10:34:11;27.73;;;14.73;;
22250;SDS011;59348;52.158;5.588;2022-10-30T10:36:44;25.17;;;13.77;;
22250;SDS011;59348;52.158;5.588;2022-10-30T10:39:19;24.80;;;14.63;;
22250;SDS011;59348;52.158;5.588;2022-10-30T10:41:53;27.95;;;15.05;;
22250;SDS011;59348;52.158;5.588;2022-10-30T10:44:26;26.13;;;14.18;;
22250;SDS011;59348;52.158;5.588;2022-10-30T10:47:01;28.50;;;14.23;;
22250;SDS011;59348;52.158;5.588;2022-10-30T10:49:35;23.00;;;14.05;;
22250;SDS011;59348;52.158;5.588;2022-10-30T10:52:07;31.17;;;14.57;;
22250;SDS011;59348;52.158;5.588;2022-10-30T10:54:35;24.23;;;14.35;;
22250;SDS011;59348;52.158;5.588;2022-10-30T10:57:09;28.42;;;14.07;;
22250;SDS011;59348;52.158;5.588;2022-10-30T10:59:41;26.65;;;14.63;;
22250;SDS011;59348;52.158;5.588;2022-10-30T11:02:14;29.35;;;14.95;;
22250;SDS011;59348;52.158;5.588;2022-10-30T11:04:45;25.25;;;14.85;;
22250;SDS011;59348;52.158;5.588;2022-10-30T11:07:16;31.25;;;14.77;;
22250;SDS011;59348;52.158;5.588;2022-10-30T11:09:45;28.75;;;13.45;;
22250;SDS011;59348;52.158;5.588;2022-10-30T11:12:13;23.52;;;14.60;;
22250;SDS011;59348;52.158;5.588;2022-10-30T11:14:40;22.17;;;14.13;;
22250;SDS011;59348;52.158;5.588;2022-10-30T11:17:10;23.40;;;14.27;;
22250;SDS011;59348;52.158;5.588;2022-10-30T11:19:41;25.80;;;14.55;;
22250;SDS011;59348;52.158;5.588;2022-10-30T11:22:11;28.17;;;14.23;;
22250;SDS011;59348;52.158;5.588;2022-10-30T11:24:43;31.58;;;14.57;;
22250;SDS011;59348;52.158;5.588;2022-10-30T11:27:15;30.40;;;14.02;;
22250;SDS011;59348;52.158;5.588;2022-10-30T11:29:46;24.30;;;13.95;;
22250;SDS011;59348;52.158;5.588;2022-10-30T11:32:16;27.38;;;14.65;;
22250;SDS011;59348;52.158;5.588;2022-10-30T11:34:46;27.77;;;14.38;;
22250;SDS011;59348;52.158;5.588;2022-10-30T11:37:30;25.52;;;13.60;;
22250;SDS011;59348;52.158;5.588;2022-10-30T11:40:02;27.95;;;14.05;;
22250;SDS011;59348;52.158;5.588;2022-10-30T11:42:30;29.52;;;14.27;;
22250;SDS011;59348;52.158;5.588;2022-10-30T11:44:58;27.20;;;14.93;;
22250;SDS011;59348;52.158;5.588;2022-10-30T11:47:28;31.77;;;14.98;;
22250;SDS011;59348;52.158;5.588;2022-10-30T11:49:58;26.10;;;14.55;;
22250;SDS011;59348;52.158;5.588;2022-10-30T11:52:26;26.88;;;14.70;;
22250;SDS011;59348;52.158;5.588;2022-10-30T11:54:53;29.13;;;14.32;;
22250;SDS011;59348;52.158;5.588;2022-10-30T11:57:27;30.02;;;14.23;;
22250;SDS011;59348;52.158;5.588;2022-10-30T11:59:57;26.35;;;13.90;;
22250;SDS011;59348;52.158;5.588;2022-10-30T12:02:25;26.95;;;13.98;;
22250;SDS011;59348;52.158;5.588;2022-10-30T12:04:55;28.60;;;14.50;;
22250;SDS011;59348;52.158;5.588;2022-10-30T12:07:26;30.27;;;14.52;;
22250;SDS011;59348;52.158;5.588;2022-10-30T12:09:56;27.13;;;13.85;;
22250;SDS011;59348;52.158;5.588;2022-10-30T12:12:28;29.60;;;15.20;;
22250;SDS011;59348;52.158;5.588;2022-10-30T12:15:06;25.75;;;14.27;;
22250;SDS011;59348;52.158;5.588;2022-10-30T12:17:34;24.35;;;13.95;;
22250;SDS011;59348;52.158;5.588;2022-10-30T12:20:01;24.08;;;14.52;;
22250;SDS011;59348;52.158;5.588;2022-10-30T12:22:29;25.95;;;14.02;;
22250;SDS011;59348;52.158;5.588;2022-10-30T12:24:57;26.02;;;14.48;;
22250;SDS011;59348;52.158;5.588;2022-10-30T12:27:27;27.13;;;14.80;;
22250;SDS011;59348;52.158;5.588;2022-10-30T12:29:58;26.02;;;14.10;;
22250;SDS011;59348;52.158;5.588;2022-10-30T12:32:28;24.23;;;14.50;;
22250;SDS011;59348;52.158;5.588;2022-10-30T12:35:00;28.95;;;14.93;;
22250;SDS011;59348;52.158;5.588;2022-10-30T12:37:30;25.67;;;14.55;;
22250;SDS011;59348;52.158;5.588;2022-10-30T12:39:59;26.63;;;14.68;;
22250;SDS011;59348;52.158;5.588;2022-10-30T12:42:29;28.95;;;15.25;;
22250;SDS011;59348;52.158;5.588;2022-10-30T12:45:01;24.05;;;14.57;;
22250;SDS011;59348;52.158;5.588;2022-10-30T12:47:32;25.83;;;14.77;;
22250;SDS011;59348;52.158;5.588;2022-10-30T12:50:02;28.13;;;14.68;;
22250;SDS011;59348;52.158;5.588;2022-10-30T12:52:32;32.45;;;15.15;;
22250;SDS011;59348;52.158;5.588;2022-10-30T12:55:02;25.80;;;14.48;;
22250;SDS011;59348;52.158;5.588;2022-10-30T12:57:32;32.40;;;14.77;;
22250;SDS011;59348;52.158;5.588;2022-10-30T13:00:03;22.92;;;13.73;;
22250;SDS011;59348;52.158;5.588;2022-10-30T13:02:35;27.95;;;14.15;;
22250;SDS011;59348;52.158;5.588;2022-10-30T13:05:05;25.60;;;14.43;;
22250;SDS011;59348;52.158;5.588;2022-10-30T13:07:40;24.75;;;14.20;;
22250;SDS011;59348;52.158;5.588;2022-10-30T13:10:15;22.55;;;14.55;;
22250;SDS011;59348;52.158;5.588;2022-10-30T13:12:46;26.15;;;15.35;;
22250;SDS011;59348;52.158;5.588;2022-10-30T13:15:17;25.63;;;15.02;;
22250;SDS011;59348;52.158;5.588;2022-10-30T13:17:47;30.35;;;15.10;;
22250;SDS011;59348;52.158;5.588;2022-10-30T13:20:16;33.58;;;15.30;;
22250;SDS011;59348;52.158;5.588;2022-10-30T13:22:45;27.20;;;14.80;;
22250;SDS011;59348;52.158;5.588;2022-10-30T13:25:14;31.00;;;14.98;;
22250;SDS011;59348;52.158;5.588;2022-10-30T13:27:49;25.15;;;14.75;;
22250;SDS011;59348;52.158;5.588;2022-10-30T13:30:18;25.65;;;14.82;;
22250;SDS011;59348;52.158;5.588;2022-10-30T13:32:51;28.55;;;14.93;;
22250;SDS011;59348;52.158;5.588;2022-10-30T13:35:23;29.48;;;15.07;;
22250;SDS011;59348;52.158;5.588;2022-10-30T13:37:54;27.95;;;15.18;;
22250;SDS011;59348;52.158;5.588;2022-10-30T13:40:26;27.33;;;15.02;;
22250;SDS011;59348;52.158;5.588;2022-10-30T13:43:00;25.38;;;15.65;;
22250;SDS011;59348;52.158;5.588;2022-10-30T13:45:35;25.63;;;15.52;;
22250;SDS011;59348;52.158;5.588;2022-10-30T13:48:06;29.58;;;15.68;;
22250;SDS011;59348;52.158;5.588;2022-10-30T13:50:41;26.27;;;15.13;;
22250;SDS011;59348;52.158;5.588;2022-10-30T13:53:12;24.35;;;15.35;;
22250;SDS011;59348;52.158;5.588;2022-10-30T13:55:40;32.60;;;15.52;;
22250;SDS011;59348;52.158;5.588;2022-10-30T13:58:11;26.50;;;15.07;;
22250;SDS011;59348;52.158;5.588;2022-10-30T14:00:46;29.55;;;16.52;;
22250;SDS011;59348;52.158;5.588;2022-10-30T14:03:20;29.92;;;16.75;;
22250;SDS011;59348;52.158;5.588;2022-10-30T14:05:50;27.58;;;16.52;;
22250;SDS011;59348;52.158;5.588;2022-10-30T14:08:20;30.08;;;16.58;;
22250;SDS011;59348;52.158;5.588;2022-10-30T14:10:51;28.50;;;16.33;;
22250;SDS011;59348;52.158;5.588;2022-10-30T14:13:22;29.38;;;17.00;;
22250;SDS011;59348;52.158;5.588;2022-10-30T14:15:52;28.63;;;16.83;;
22250;SDS011;59348;52.158;5.588;2022-10-30T14:18:23;35.03;;;17.73;;
22250;SDS011;59348;52.158;5.588;2022-10-30T14:20:51;29.02;;;17.73;;
22250;SDS011;59348;52.158;5.588;2022-10-30T14:23:19;29.23;;;16.85;;
22250;SDS011;59348;52.158;5.588;2022-10-30T14:28:31;26.08;;;16.67;;
22250;SDS011;59348;52.158;5.588;2022-10-30T14:31:00;34.38;;;17.17;;
22250;SDS011;59348;52.158;5.588;2022-10-30T14:33:32;28.23;;;17.45;;
22250;SDS011;59348;52.158;5.588;2022-10-30T14:38:44;31.08;;;16.83;;
22250;SDS011;59348;52.158;5.588;2022-10-30T14:41:20;30.83;;;17.15;;